sensor_id;sensor_type;location;lat;lon;timestamp;temperature;humidity
20504;DHT22;10410;51.046;6.980;2022-12-07T00:04:12;4.90;99.90
20504;DHT22;10410;51.046;6.980;2022-12-07T00:11:18;4.90;99.90
20504;DHT22;10410;51.046;6.980;2022-12-07T00:18:20;4.90;99.90
20504;DHT22;10410;51.046;6.980;2022-12-07T00:25:20;4.90;99.90
20504;DHT22;10410;51.046;6.980;2022-12-07T00:32:20;4.90;99.90
20504;DHT22;10410;51.046;6.980;2022-12-07T00:39:21;4.90;99.90
20504;DHT22;10410;51.046;6.980;2022-12-07T00:46:22;5.00;99.90
20504;DHT22;10410;51.046;6.980;2022-12-07T00:53:22;5.00;99.90
20504;DHT22;10410;51.046;6.980;2022-12-07T01:00:22;5.00;99.90
20504;DHT22;10410;51.046;6.980;2022-12-07T01:07:23;5.00;99.90
20504;DHT22;10410;51.046;6.980;2022-12-07T01:14:23;5.00;99.90
20504;DHT22;10410;51.046;6.980;2022-12-07T01:21:26;5.00;99.90
20504;DHT22;10410;51.046;6.980;2022-12-07T01:28:27;4.90;99.90
20504;DHT22;10410;51.046;6.980;2022-12-07T01:35:28;4.90;99.90
20504;DHT22;10410;51.046;6.980;2022-12-07T01:42:29;4.90;99.90
20504;DHT22;10410;51.046;6.980;2022-12-07T01:49:44;4.90;99.90
20504;DHT22;10410;51.046;6.980;2022-12-07T01:57:18;4.90;99.90
20504;DHT22;10410;51.046;6.980;2022-12-07T02:04:27;4.90;99.90
20504;DHT22;10410;51.046;6.980;2022-12-07T02:11:28;4.80;99.90
20504;DHT22;10410;51.046;6.980;2022-12-07T02:18:59;4.90;99.90
20504;DHT22;10410;51.046;6.980;2022-12-07T02:33:35;4.90;99.90
20504;DHT22;10410;51.046;6.980;2022-12-07T02:40:53;4.90;99.90
20504;DHT22;10410;51.046;6.980;2022-12-07T02:47:56;4.90;99.90
20504;DHT22;10410;51.046;6.980;2022-12-07T02:54:59;4.90;99.90
20504;DHT22;10410;51.046;6.980;2022-12-07T03:09:32;4.90;99.90
20504;DHT22;10410;51.046;6.980;2022-12-07T03:16:40;4.90;99.90
20504;DHT22;10410;51.046;6.980;2022-12-07T03:23:45;4.90;99.90
20504;DHT22;10410;51.046;6.980;2022-12-07T03:30:51;4.90;99.90
20504;DHT22;10410;51.046;6.980;2022-12-07T03:38:00;4.90;99.90
20504;DHT22;10410;51.046;6.980;2022-12-07T03:45:04;4.90;99.90
20504;DHT22;10410;51.046;6.980;2022-12-07T03:52:32;5.00;99.90
20504;DHT22;10410;51.046;6.980;2022-12-07T03:59:36;4.90;99.90
20504;DHT22;10410;51.046;6.980;2022-12-07T04:06:37;4.80;99.90
20504;DHT22;10410;51.046;6.980;2022-12-07T04:13:37;4.80;99.90
20504;DHT22;10410;51.046;6.980;2022-12-07T04:20:59;4.70;99.90
20504;DHT22;10410;51.046;6.980;2022-12-07T04:28:00;4.70;99.90
20504;DHT22;10410;51.046;6.980;2022-12-07T04:35:00;4.70;99.90
20504;DHT22;10410;51.046;6.980;2022-12-07T04:42:01;4.70;99.90
20504;DHT22;10410;51.046;6.980;2022-12-07T04:49:02;4.70;99.90
20504;DHT22;10410;51.046;6.980;2022-12-07T04:56:03;4.70;99.90
20504;DHT22;10410;51.046;6.980;2022-12-07T05:03:03;4.70;99.90
20504;DHT22;10410;51.046;6.980;2022-12-07T05:10:05;4.60;99.90
20504;DHT22;10410;51.046;6.980;2022-12-07T05:17:05;4.60;99.90
20504;DHT22;10410;51.046;6.980;2022-12-07T05:24:07;4.60;99.90
20504;DHT22;10410;51.046;6.980;2022-12-07T05:31:08;4.50;99.90
20504;DHT22;10410;51.046;6.980;2022-12-07T05:38:11;4.50;99.90
20504;DHT22;10410;51.046;6.980;2022-12-07T05:45:13;4.60;99.90
20504;DHT22;10410;51.046;6.980;2022-12-07T05:52:16;4.60;99.90
20504;DHT22;10410;51.046;6.980;2022-12-07T05:59:17;4.60;99.90
20504;DHT22;10410;51.046;6.980;2022-12-07T06:06:26;4.50;99.90
20504;DHT22;10410;51.046;6.980;2022-12-07T06:13:28;4.50;99.90
20504;DHT22;10410;51.046;6.980;2022-12-07T06:20:30;4.40;99.90
20504;DHT22;10410;51.046;6.980;2022-12-07T06:27:31;4.40;99.90
20504;DHT22;10410;51.046;6.980;2022-12-07T06:34:33;4.30;99.90
20504;DHT22;10410;51.046;6.980;2022-12-07T06:41:38;4.30;99.90
20504;DHT22;10410;51.046;6.980;2022-12-07T06:48:41;4.30;99.90
20504;DHT22;10410;51.046;6.980;2022-12-07T06:55:45;4.30;99.90
20504;DHT22;10410;51.046;6.980;2022-12-07T07:02:46;4.30;99.90
20504;DHT22;10410;51.046;6.980;2022-12-07T07:09:49;4.30;99.90
20504;DHT22;10410;51.046;6.980;2022-12-07T07:16:50;4.20;99.90
20504;DHT22;10410;51.046;6.980;2022-12-07T07:23:51;4.20;99.90
20504;DHT22;10410;51.046;6.980;2022-12-07T07:30:52;4.30;99.90
20504;DHT22;10410;51.046;6.980;2022-12-07T07:37:52;4.40;99.90
20504;DHT22;10410;51.046;6.980;2022-12-07T07:44:53;4.40;99.90
20504;DHT22;10410;51.046;6.980;2022-12-07T07:51:53;4.50;99.90
20504;DHT22;10410;51.046;6.980;2022-12-07T07:58:54;4.50;99.90
20504;DHT22;10410;51.046;6.980;2022-12-07T08:05:55;4.50;99.90
20504;DHT22;10410;51.046;6.980;2022-12-07T08:12:55;4.50;99.90
20504;DHT22;10410;51.046;6.980;2022-12-07T08:20:10;4.50;99.90
20504;DHT22;10410;51.046;6.980;2022-12-07T08:27:11;4.60;99.90
20504;DHT22;10410;51.046;6.980;2022-12-07T08:34:12;4.50;99.90
20504;DHT22;10410;51.046;6.980;2022-12-07T08:41:12;4.50;99.90
20504;DHT22;10410;51.046;6.980;2022-12-07T08:48:13;4.60;99.90
20504;DHT22;10410;51.046;6.980;2022-12-07T08:55:14;4.60;99.90
20504;DHT22;10410;51.046;6.980;2022-12-07T09:02:15;4.70;99.90
20504;DHT22;10410;51.046;6.980;2022-12-07T09:09:15;4.80;99.90
20504;DHT22;10410;51.046;6.980;2022-12-07T09:16:16;4.80;99.90
20504;DHT22;10410;51.046;6.980;2022-12-07T09:23:16;4.90;99.90
20504;DHT22;10410;51.046;6.980;2022-12-07T09:30:17;5.00;99.90
20504;DHT22;10410;51.046;6.980;2022-12-07T09:37:17;5.10;99.90
20504;DHT22;10410;51.046;6.980;2022-12-07T09:44:23;5.00;99.90
20504;DHT22;10410;51.046;6.980;2022-12-07T09:51:24;5.00;99.90
20504;DHT22;10410;51.046;6.980;2022-12-07T09:58:26;5.10;99.90
20504;DHT22;10410;51.046;6.980;2022-12-07T10:05:30;5.20;99.90
20504;DHT22;10410;51.046;6.980;2022-12-07T10:12:53;5.40;99.90
20504;DHT22;10410;51.046;6.980;2022-12-07T10:27:22;5.50;99.90
20504;DHT22;10410;51.046;6.980;2022-12-07T10:34:31;5.50;99.90
20504;DHT22;10410;51.046;6.980;2022-12-07T10:42:03;5.60;99.90
20504;DHT22;10410;51.046;6.980;2022-12-07T10:49:15;5.60;99.90
20504;DHT22;10410;51.046;6.980;2022-12-07T11:11:31;5.90;99.90
20504;DHT22;10410;51.046;6.980;2022-12-07T11:18:51;5.90;99.90
20504;DHT22;10410;51.046;6.980;2022-12-07T11:33:47;5.90;99.90
20504;DHT22;10410;51.046;6.980;2022-12-07T11:40:40;5.90;99.90
20504;DHT22;10410;51.046;6.980;2022-12-07T12:02:41;6.10;99.90
20504;DHT22;10410;51.046;6.980;2022-12-07T12:09:54;6.10;99.90
20504;DHT22;10410;51.046;6.980;2022-12-07T12:24:31;6.30;99.90
20504;DHT22;10410;51.046;6.980;2022-12-07T12:31:40;6.30;99.90
20504;DHT22;10410;51.046;6.980;2022-12-07T12:45:49;6.30;99.90
20504;DHT22;10410;51.046;6.980;2022-12-07T12:53:16;6.30;99.90
20504;DHT22;10410;51.046;6.980;2022-12-07T13:00:20;6.30;99.90
20504;DHT22;10410;51.046;6.980;2022-12-07T13:21:55;6.80;99.90
20504;DHT22;10410;51.046;6.980;2022-12-07T13:29:14;6.90;99.90
20504;DHT22;10410;51.046;6.980;2022-12-07T13:36:24;6.70;99.90
20504;DHT22;10410;51.046;6.980;2022-12-07T13:43:25;6.60;99.90
20504;DHT22;10410;51.046;6.980;2022-12-07T13:50:30;6.40;99.90
20504;DHT22;10410;51.046;6.980;2022-12-07T13:57:33;6.30;99.90
20504;DHT22;10410;51.046;6.980;2022-12-07T14:04:36;6.20;99.90
20504;DHT22;10410;51.046;6.980;2022-12-07T14:11:37;6.10;99.90
20504;DHT22;10410;51.046;6.980;2022-12-07T14:18:41;6.00;99.90
20504;DHT22;10410;51.046;6.980;2022-12-07T14:25:49;6.00;99.90
20504;DHT22;10410;51.046;6.980;2022-12-07T14:32:54;6.10;99.90
20504;DHT22;10410;51.046;6.980;2022-12-07T14:39:55;6.10;99.90
20504;DHT22;10410;51.046;6.980;2022-12-07T14:46:55;6.10;99.90
20504;DHT22;10410;51.046;6.980;2022-12-07T14:54:18;6.10;99.90
20504;DHT22;10410;51.046;6.980;2022-12-07T15:01:19;6.00;99.90
20504;DHT22;10410;51.046;6.980;2022-12-07T15:08:19;6.00;99.90
20504;DHT22;10410;51.046;6.980;2022-12-07T15:15:19;6.00;99.90
20504;DHT22;10410;51.046;6.980;2022-12-07T15:22:20;6.00;99.90
20504;DHT22;10410;51.046;6.980;2022-12-07T15:29:20;6.00;99.90
20504;DHT22;10410;51.046;6.980;2022-12-07T15:36:25;5.90;99.90
20504;DHT22;10410;51.046;6.980;2022-12-07T15:43:26;5.80;99.90
20504;DHT22;10410;51.046;6.980;2022-12-07T15:50:44;5.60;99.90
20504;DHT22;10410;51.046;6.980;2022-12-07T15:57:45;5.40;99.90
20504;DHT22;10410;51.046;6.980;2022-12-07T16:04:45;5.30;99.90
20504;DHT22;10410;51.046;6.980;2022-12-07T16:11:46;5.20;99.90
20504;DHT22;10410;51.046;6.980;2022-12-07T16:18:46;5.20;99.90
20504;DHT22;10410;51.046;6.980;2022-12-07T16:25:46;5.10;99.90
20504;DHT22;10410;51.046;6.980;2022-12-07T16:32:47;5.10;99.90
20504;DHT22;10410;51.046;6.980;2022-12-07T16:39:48;5.10;99.90
20504;DHT22;10410;51.046;6.980;2022-12-07T16:46:48;5.10;99.90
20504;DHT22;10410;51.046;6.980;2022-12-07T16:53:49;5.10;99.90
20504;DHT22;10410;51.046;6.980;2022-12-07T17:00:52;5.00;99.90
20504;DHT22;10410;51.046;6.980;2022-12-07T17:07:53;5.00;99.90
20504;DHT22;10410;51.046;6.980;2022-12-07T17:14:54;5.00;99.90
20504;DHT22;10410;51.046;6.980;2022-12-07T17:22:13;5.00;99.90
20504;DHT22;10410;51.046;6.980;2022-12-07T17:29:15;5.00;99.90
20504;DHT22;10410;51.046;6.980;2022-12-07T17:36:19;5.00;99.90
20504;DHT22;10410;51.046;6.980;2022-12-07T17:43:19;5.00;99.90
20504;DHT22;10410;51.046;6.980;2022-12-07T17:50:20;5.00;99.90
20504;DHT22;10410;51.046;6.980;2022-12-07T17:57:40;5.00;99.90
20504;DHT22;10410;51.046;6.980;2022-12-07T18:04:41;5.00;99.90
20504;DHT22;10410;51.046;6.980;2022-12-07T18:11:42;5.00;99.90
20504;DHT22;10410;51.046;6.980;2022-12-07T18:18:43;5.00;99.90
20504;DHT22;10410;51.046;6.980;2022-12-07T18:25:51;5.00;99.90
20504;DHT22;10410;51.046;6.980;2022-12-07T18:32:52;5.00;99.90
20504;DHT22;10410;51.046;6.980;2022-12-07T18:39:52;5.10;99.90
20504;DHT22;10410;51.046;6.980;2022-12-07T18:46:54;5.10;99.90
20504;DHT22;10410;51.046;6.980;2022-12-07T18:53:55;5.20;99.90
20504;DHT22;10410;51.046;6.980;2022-12-07T19:00:56;5.10;99.90
20504;DHT22;10410;51.046;6.980;2022-12-07T19:07:56;5.10;99.90
20504;DHT22;10410;51.046;6.980;2022-12-07T19:14:57;5.10;99.90
20504;DHT22;10410;51.046;6.980;2022-12-07T19:21:57;5.10;99.90
20504;DHT22;10410;51.046;6.980;2022-12-07T19:28:57;5.00;99.90
20504;DHT22;10410;51.046;6.980;2022-12-07T19:35:58;5.00;99.90
20504;DHT22;10410;51.046;6.980;2022-12-07T19:42:58;5.00;99.90
20504;DHT22;10410;51.046;6.980;2022-12-07T19:49:58;4.90;99.90
20504;DHT22;10410;51.046;6.980;2022-12-07T19:56:59;4.90;99.90
20504;DHT22;10410;51.046;6.980;2022-12-07T20:03:59;4.90;99.90
20504;DHT22;10410;51.046;6.980;2022-12-07T20:11:00;4.90;99.90
20504;DHT22;10410;51.046;6.980;2022-12-07T20:18:20;4.80;99.90
20504;DHT22;10410;51.046;6.980;2022-12-07T20:25:20;4.80;99.90
20504;DHT22;10410;51.046;6.980;2022-12-07T20:32:21;4.70;99.90
20504;DHT22;10410;51.046;6.980;2022-12-07T20:39:22;4.50;99.90
20504;DHT22;10410;51.046;6.980;2022-12-07T20:46:23;4.50;99.90
20504;DHT22;10410;51.046;6.980;2022-12-07T20:53:23;4.50;99.90
20504;DHT22;10410;51.046;6.980;2022-12-07T21:00:24;4.40;99.90
20504;DHT22;10410;51.046;6.980;2022-12-07T21:07:24;4.20;99.90
20504;DHT22;10410;51.046;6.980;2022-12-07T21:14:25;4.40;99.90
20504;DHT22;10410;51.046;6.980;2022-12-07T21:21:25;4.40;99.90
20504;DHT22;10410;51.046;6.980;2022-12-07T21:28:26;4.40;99.90
20504;DHT22;10410;51.046;6.980;2022-12-07T21:35:26;4.40;99.90
20504;DHT22;10410;51.046;6.980;2022-12-07T21:42:26;4.40;99.90
20504;DHT22;10410;51.046;6.980;2022-12-07T21:49:27;4.30;99.90
20504;DHT22;10410;51.046;6.980;2022-12-07T21:56:30;4.30;99.90
20504;DHT22;10410;51.046;6.980;2022-12-07T22:03:31;4.30;99.90
20504;DHT22;10410;51.046;6.980;2022-12-07T22:10:31;4.30;99.90
20504;DHT22;10410;51.046;6.980;2022-12-07T22:17:32;4.30;99.90
20504;DHT22;10410;51.046;6.980;2022-12-07T22:24:33;4.30;99.90
20504;DHT22;10410;51.046;6.980;2022-12-07T22:31:34;4.30;99.90
20504;DHT22;10410;51.046;6.980;2022-12-07T22:38:35;4.30;99.90
20504;DHT22;10410;51.046;6.980;2022-12-07T22:45:36;4.20;99.90
20504;DHT22;10410;51.046;6.980;2022-12-07T22:52:38;4.20;99.90
20504;DHT22;10410;51.046;6.980;2022-12-07T22:59:39;4.20;99.90
20504;DHT22;10410;51.046;6.980;2022-12-07T23:06:39;4.20;99.90
20504;DHT22;10410;51.046;6.980;2022-12-07T23:13:39;4.20;99.90
20504;DHT22;10410;51.046;6.980;2022-12-07T23:20:40;4.20;99.90
20504;DHT22;10410;51.046;6.980;2022-12-07T23:27:40;4.20;99.90
20504;DHT22;10410;51.046;6.980;2022-12-07T23:34:42;4.20;99.90
20504;DHT22;10410;51.046;6.980;2022-12-07T23:41:42;4.20;99.90
20504;DHT22;10410;51.046;6.980;2022-12-07T23:48:44;4.20;99.90
20504;DHT22;10410;51.046;6.980;2022-12-07T23:55:45;4.20;99.90
